Time;durP1;ratioP1;P1;durP2;ratioP2;P2;SDS_P1;SDS_P2;PMS_P1;PMS_P2;Temp;Humidity;BMP_temperature;BMP_pressure;BME280_temperature;BME280_humidity;BME280_pressure;Samples;Min_cycle;Max_cycle;Signal;HPM_P1;HPM_P2
2023/04/25 00:01:38;;;;;;;9.82;3.88;;;7.10;99.90;;;;;;4990199;28;20030;-75
2023/04/25 00:04:07;;;;;;;7.15;3.58;;;7.00;99.90;;;;;;4990901;28;20022;-77
2023/04/25 00:06:36;;;;;;;8.43;3.67;;;7.00;99.90;;;;;;4990349;28;20031;-77
2023/04/25 00:09:07;;;;;;;7.93;3.83;;;7.00;99.90;;;;;;4990649;28;20064;-75
2023/04/25 00:11:33;;;;;;;7.78;3.85;;;7.00;99.90;;;;;;4991202;28;20022;-75
2023/04/25 00:14:01;;;;;;;8.23;4.00;;;7.00;99.90;;;;;;4991116;28;20030;-75
2023/04/25 00:16:28;;;;;;;10.65;4.47;;;7.00;99.90;;;;;;4991491;28;20026;-75
2023/04/25 00:18:54;;;;;;;8.07;4.00;;;7.00;99.90;;;;;;4989979;28;20074;-75
2023/04/25 00:21:20;;;;;;;9.27;4.53;;;7.10;99.90;;;;;;4991328;28;20537;-76
2023/04/25 00:23:47;;;;;;;8.73;4.10;;;7.10;99.90;;;;;;4989195;28;20041;-76
2023/04/25 00:26:13;;;;;;;9.43;4.00;;;7.10;99.90;;;;;;4990765;28;20034;-75
2023/04/25 00:28:40;;;;;;;7.78;3.67;;;7.10;99.90;;;;;;5005855;28;20498;-75
2023/04/25 00:31:05;;;;;;;8.35;4.00;;;7.00;99.90;;;;;;4989297;28;20132;-75
2023/04/25 00:33:31;;;;;;;9.55;3.90;;;6.90;99.90;;;;;;4989348;28;20054;-75
2023/04/25 00:35:56;;;;;;;7.85;4.30;;;6.80;99.90;;;;;;5004094;28;20034;-76
2023/04/25 00:38:22;;;;;;;8.95;3.80;;;6.70;99.90;;;;;;4974001;28;20121;-76
2023/04/25 00:40:48;;;;;;;7.18;4.20;;;6.70;99.90;;;;;;4988256;28;20746;-76
2023/04/25 00:43:14;;;;;;;7.70;3.90;;;6.70;99.90;;;;;;4989857;28;20030;-76
2023/04/25 00:45:40;;;;;;;7.95;4.30;;;6.70;99.90;;;;;;5004898;28;20030;-76
2023/04/25 00:48:06;;;;;;;7.13;4.03;;;6.70;99.90;;;;;;4990881;28;20046;-76
2023/04/25 00:50:33;;;;;;;8.80;4.25;;;6.80;99.90;;;;;;4989268;28;20501;-75
2023/04/25 00:52:59;;;;;;;10.77;3.42;;;6.80;99.90;;;;;;4990610;28;20038;-75
2023/04/25 00:55:25;;;;;;;10.10;3.70;;;6.80;99.90;;;;;;4990565;28;20451;-76
2023/04/25 00:57:51;;;;;;;10.07;3.90;;;6.90;99.90;;;;;;4989740;28;20034;-76
2023/04/25 01:00:18;;;;;;;9.25;4.03;;;6.90;99.90;;;;;;4989156;28;20041;-76
2023/04/25 01:02:45;;;;;;;8.02;3.88;;;6.90;99.90;;;;;;4989950;28;20089;-75
2023/04/25 01:05:11;;;;;;;9.25;4.25;;;6.90;99.90;;;;;;4988621;28;20054;-75
2023/04/25 01:07:37;;;;;;;7.70;4.10;;;6.90;99.90;;;;;;4988425;28;20062;-76
2023/04/25 01:10:04;;;;;;;7.40;3.55;;;6.90;99.90;;;;;;4991065;28;20026;-76
2023/04/25 01:12:30;;;;;;;8.10;3.92;;;6.90;99.90;;;;;;4989766;28;20022;-77
2023/04/25 01:14:56;;;;;;;9.13;3.70;;;6.90;99.90;;;;;;4989553;28;20034;-75
2023/04/25 01:17:22;;;;;;;7.43;3.35;;;6.90;99.90;;;;;;4990465;28;20068;-76
2023/04/25 01:19:48;;;;;;;5.65;3.30;;;6.90;99.90;;;;;;4988449;28;20034;-76
2023/04/25 01:22:15;;;;;;;8.70;4.07;;;6.80;99.90;;;;;;4989975;28;20030;-76
2023/04/25 01:24:41;;;;;;;6.63;3.65;;;6.70;99.90;;;;;;4989172;28;20058;-75
2023/04/25 01:27:07;;;;;;;7.53;4.03;;;6.70;99.90;;;;;;4989116;28;20041;-75
2023/04/25 01:29:34;;;;;;;8.55;3.92;;;6.70;99.90;;;;;;4991024;28;20038;-75
2023/04/25 01:32:01;;;;;;;8.23;3.20;;;6.70;99.90;;;;;;4990433;28;20022;-75
2023/04/25 01:34:26;;;;;;;9.15;4.07;;;6.70;99.90;;;;;;4989979;28;20030;-75
2023/04/25 01:36:53;;;;;;;8.60;3.63;;;6.70;99.90;;;;;;4988608;28;20596;-75
2023/04/25 01:39:19;;;;;;;9.25;4.20;;;6.70;99.90;;;;;;4971053;28;20517;-75
2023/04/25 01:41:48;;;;;;;8.05;3.50;;;6.70;99.90;;;;;;4988782;28;20030;-75
2023/04/25 01:44:14;;;;;;;7.47;3.55;;;6.80;99.90;;;;;;4984414;28;20479;-75
2023/04/25 01:46:40;;;;;;;8.90;4.13;;;6.80;99.90;;;;;;4987178;28;20030;-75
2023/04/25 01:49:06;;;;;;;8.98;4.32;;;6.90;99.90;;;;;;4972179;28;20105;-75
2023/04/25 01:51:32;;;;;;;8.40;3.83;;;6.90;99.90;;;;;;4987586;28;20030;-75
2023/04/25 01:53:58;;;;;;;6.40;3.40;;;6.90;99.90;;;;;;4989552;28;20471;-76
2023/04/25 01:56:24;;;;;;;10.10;3.92;;;6.90;99.90;;;;;;4989048;28;20478;-76
2023/04/25 01:58:51;;;;;;;6.45;3.53;;;6.90;99.90;;;;;;4973840;28;20380;-77
2023/04/25 02:01:17;;;;;;;6.07;3.55;;;6.80;99.90;;;;;;4986084;28;20042;-75
2023/04/25 02:03:43;;;;;;;8.02;3.75;;;6.90;99.90;;;;;;4983745;28;20031;-76
2023/04/25 02:06:09;;;;;;;7.82;3.67;;;6.90;99.90;;;;;;4971210;28;20077;-75
2023/04/25 02:08:34;;;;;;;7.53;3.55;;;6.90;99.90;;;;;;4988378;28;20097;-75
2023/04/25 02:11:00;;;;;;;9.75;4.10;;;6.90;99.90;;;;;;4988766;28;20185;-75
2023/04/25 02:13:26;;;;;;;6.13;3.47;;;6.90;99.90;;;;;;4988103;28;20081;-76
2023/04/25 02:15:51;;;;;;;7.93;4.03;;;6.90;99.90;;;;;;4988962;28;20027;-76
2023/04/25 02:18:19;;;;;;;10.35;3.78;;;6.90;99.90;;;;;;4986475;28;20074;-76
2023/04/25 02:20:45;;;;;;;8.13;4.15;;;6.90;99.90;;;;;;4968199;28;20197;-76
2023/04/25 02:23:11;;;;;;;7.45;3.67;;;7.00;99.90;;;;;;4983324;28;20466;-76
2023/04/25 02:25:36;;;;;;;9.18;3.95;;;7.00;99.90;;;;;;4969047;28;20034;-76
2023/04/25 02:28:02;;;;;;;7.28;3.90;;;7.00;99.90;;;;;;4989389;28;20057;-75
2023/04/25 02:30:28;;;;;;;7.13;4.05;;;6.90;99.90;;;;;;4989157;28;20038;-75
2023/04/25 02:32:54;;;;;;;7.80;3.67;;;6.90;99.90;;;;;;4987860;28;20042;-76
2023/04/25 02:35:19;;;;;;;7.60;3.97;;;6.90;99.90;;;;;;4989406;28;20434;-76
2023/04/25 02:37:45;;;;;;;9.07;3.63;;;6.90;99.90;;;;;;4987528;28;20372;-76
2023/04/25 02:40:11;;;;;;;8.23;3.63;;;6.90;99.90;;;;;;4989333;28;20124;-76
2023/04/25 02:42:36;;;;;;;7.30;3.85;;;6.90;99.90;;;;;;4988892;28;20238;-76
2023/04/25 02:45:03;;;;;;;7.90;3.90;;;6.90;99.90;;;;;;4988593;28;20038;-75
2023/04/25 02:47:29;;;;;;;8.27;3.50;;;6.90;99.90;;;;;;4988331;28;20455;-76
2023/04/25 02:49:54;;;;;;;7.22;3.80;;;6.90;99.90;;;;;;5003560;28;20034;-76
2023/04/25 02:52:21;;;;;;;9.18;3.97;;;6.80;99.90;;;;;;4980865;28;20038;-76
2023/04/25 02:54:46;;;;;;;8.23;4.38;;;6.80;99.90;;;;;;4965290;28;20079;-75
2023/04/25 02:57:12;;;;;;;8.82;4.18;;;6.80;99.90;;;;;;4952123;28;20541;-76
2023/04/25 02:59:38;;;;;;;10.10;4.72;;;6.80;99.90;;;;;;4972278;28;20034;-77
2023/04/25 03:02:03;;;;;;;8.68;4.78;;;6.80;99.90;;;;;;4979374;28;20069;-76
2023/04/25 03:04:29;;;;;;;7.80;3.85;;;6.70;99.90;;;;;;4981499;28;20085;-76
2023/04/25 03:06:55;;;;;;;9.43;4.07;;;6.70;99.90;;;;;;4981857;28;20160;-76
2023/04/25 03:09:21;;;;;;;7.85;4.22;;;6.50;99.90;;;;;;4989002;28;20406;-76
2023/04/25 03:11:46;;;;;;;7.45;3.85;;;6.50;99.90;;;;;;4988157;28;20109;-75
2023/04/25 03:14:13;;;;;;;10.57;4.78;;;6.50;99.90;;;;;;4970366;28;20027;-76
2023/04/25 03:16:39;;;;;;;14.00;5.57;;;6.50;99.90;;;;;;4970134;28;20030;-76
2023/04/25 03:19:05;;;;;;;9.18;5.20;;;6.50;99.90;;;;;;4987230;28;20037;-75
2023/04/25 03:21:32;;;;;;;12.60;5.55;;;6.50;99.90;;;;;;4989045;28;20038;-75
2023/04/25 03:23:58;;;;;;;11.10;5.15;;;6.50;99.90;;;;;;4974098;28;20031;-75
2023/04/25 03:26:24;;;;;;;11.10;5.20;;;6.60;99.90;;;;;;4991227;28;20033;-77
2023/04/25 03:28:49;;;;;;;10.38;5.32;;;6.60;99.90;;;;;;4991344;28;20026;-77
2023/04/25 03:31:15;;;;;;;12.85;5.45;;;6.60;99.90;;;;;;4992618;28;20081;-75
2023/04/25 03:33:41;;;;;;;13.70;5.45;;;6.60;99.90;;;;;;4991865;28;20049;-75
2023/04/25 03:36:07;;;;;;;11.90;5.38;;;6.60;99.90;;;;;;4991678;28;20065;-76
2023/04/25 03:38:33;;;;;;;11.95;5.60;;;6.50;99.90;;;;;;4992727;28;20066;-77
2023/04/25 03:40:58;;;;;;;11.50;5.53;;;6.50;99.90;;;;;;4990266;28;20717;-77
2023/04/25 03:43:24;;;;;;;10.38;5.43;;;6.40;99.90;;;;;;5001350;28;20049;-77
2023/04/25 03:45:50;;;;;;;12.75;5.60;;;6.30;99.90;;;;;;4994821;28;20027;-77
2023/04/25 03:48:15;;;;;;;11.45;5.75;;;6.40;99.90;;;;;;4990573;28;20482;-76
2023/04/25 03:50:41;;;;;;;10.68;5.28;;;6.40;99.90;;;;;;4991092;28;20471;-75
2023/04/25 03:53:07;;;;;;;11.18;5.30;;;6.50;99.90;;;;;;4988347;28;20116;-76
2023/04/25 03:55:32;;;;;;;14.82;5.95;;;6.40;99.90;;;;;;4992286;28;20041;-76
2023/04/25 03:57:58;;;;;;;15.30;5.82;;;6.50;99.90;;;;;;4987975;28;20452;-75
2023/04/25 04:00:25;;;;;;;14.52;6.47;;;6.50;99.90;;;;;;4979360;28;20101;-75
2023/04/25 04:02:50;;;;;;;11.98;5.28;;;6.50;99.90;;;;;;4991549;28;20030;-74
2023/04/25 04:05:16;;;;;;;14.85;6.07;;;6.50;99.90;;;;;;4990152;28;20133;-73
2023/04/25 04:07:42;;;;;;;12.63;5.57;;;6.50;99.90;;;;;;4991166;28;20066;-72
2023/04/25 04:10:11;;;;;;;17.17;6.45;;;6.50;99.90;;;;;;4991800;28;20045;-75
2023/04/25 04:12:38;;;;;;;13.45;5.65;;;6.50;99.90;;;;;;4991086;28;20446;-75
2023/04/25 04:15:05;;;;;;;15.95;5.88;;;6.50;99.90;;;;;;4990005;28;20133;-78
2023/04/25 04:17:31;;;;;;;9.85;3.90;;;6.50;99.90;;;;;;4992329;28;20436;-74
2023/04/25 04:19:57;;;;;;;7.20;3.50;;;6.40;99.90;;;;;;4990809;28;20045;-74
2023/04/25 04:22:23;;;;;;;8.25;3.95;;;6.10;99.90;;;;;;4987930;28;20031;-75
2023/04/25 04:24:49;;;;;;;9.38;4.75;;;5.90;99.90;;;;;;4990819;28;20494;-76
2023/04/25 04:27:17;;;;;;;10.38;5.40;;;5.80;99.90;;;;;;4991648;28;20030;-74
2023/04/25 04:29:43;;;;;;;13.70;6.18;;;5.90;99.90;;;;;;4989104;28;20089;-75
2023/04/25 04:32:08;;;;;;;11.63;5.63;;;6.00;99.90;;;;;;4989385;28;20164;-77
2023/04/25 04:34:34;;;;;;;12.18;5.40;;;6.00;99.90;;;;;;4989962;28;20037;-78
2023/04/25 04:37:00;;;;;;;12.52;5.70;;;6.10;99.90;;;;;;4990849;28;20023;-75
2023/04/25 04:39:26;;;;;;;12.32;5.85;;;6.20;99.90;;;;;;4990937;28;20036;-77
2023/04/25 04:41:52;;;;;;;9.93;5.30;;;6.20;99.90;;;;;;4990292;28;20027;-79
2023/04/25 04:44:18;;;;;;;10.23;5.50;;;6.30;99.90;;;;;;4989721;28;20030;-77
2023/04/25 04:46:44;;;;;;;11.88;5.75;;;6.40;99.90;;;;;;4990862;28;20220;-74
2023/04/25 04:49:11;;;;;;;13.75;6.13;;;6.50;99.90;;;;;;4990402;28;20061;-80
2023/04/25 04:51:37;;;;;;;13.00;5.60;;;6.50;99.90;;;;;;4989406;28;20050;-73
2023/04/25 04:54:03;;;;;;;9.65;5.03;;;6.50;99.90;;;;;;4989872;28;20525;-79
2023/04/25 04:56:32;;;;;;;8.77;5.25;;;6.60;99.90;;;;;;4988560;28;20066;-74
2023/04/25 04:58:58;;;;;;;10.20;4.47;;;6.60;99.90;;;;;;4989950;28;20034;-75
2023/04/25 05:01:25;;;;;;;10.98;5.70;;;6.50;99.90;;;;;;4989600;28;20577;-77
2023/04/25 05:03:51;;;;;;;16.92;6.43;;;6.40;99.90;;;;;;4990279;28;20193;-74
2023/04/25 05:06:19;;;;;;;12.48;5.97;;;6.40;99.90;;;;;;4989960;28;20069;-73
2023/04/25 05:08:45;;;;;;;12.38;5.40;;;6.40;99.90;;;;;;4988383;28;20066;-74
2023/04/25 05:11:11;;;;;;;12.05;5.43;;;6.40;99.90;;;;;;4990351;28;20085;-73
2023/04/25 05:13:36;;;;;;;11.63;5.28;;;6.40;99.90;;;;;;4990811;28;20366;-72
2023/04/25 05:16:02;;;;;;;13.75;5.88;;;6.40;99.90;;;;;;4972361;28;20027;-73
2023/04/25 05:18:28;;;;;;;13.15;5.57;;;6.50;99.90;;;;;;4990980;28;20062;-75
2023/04/25 05:20:53;;;;;;;11.45;5.68;;;6.50;99.90;;;;;;4989343;28;20389;-76
2023/04/25 05:23:19;;;;;;;13.73;6.22;;;6.60;99.90;;;;;;4988709;28;20081;-75
2023/04/25 05:25:45;;;;;;;13.75;6.38;;;6.70;99.90;;;;;;4989200;28;20497;-75
2023/04/25 05:28:12;;;;;;;15.95;5.75;;;6.70;99.90;;;;;;4990559;28;20099;-78
2023/04/25 05:30:38;;;;;;;12.05;6.03;;;6.70;99.90;;;;;;4989825;28;20073;-77
2023/04/25 05:33:04;;;;;;;12.57;6.10;;;6.80;99.90;;;;;;4990228;28;20697;-74
2023/04/25 05:35:30;;;;;;;10.00;5.00;;;6.70;99.90;;;;;;4989808;28;20482;-76
2023/04/25 05:37:55;;;;;;;11.48;5.80;;;6.80;99.90;;;;;;4988252;28;20156;-71
2023/04/25 05:40:21;;;;;;;11.70;5.68;;;6.80;99.90;;;;;;4990270;28;20034;-77
2023/04/25 05:42:46;;;;;;;13.05;5.72;;;6.90;99.90;;;;;;4988207;28;20034;-73
2023/04/25 05:45:12;;;;;;;11.82;5.13;;;6.90;99.90;;;;;;4989648;28;20034;-76
2023/04/25 05:47:38;;;;;;;12.50;6.00;;;6.90;99.90;;;;;;4988526;28;20046;-75
2023/04/25 05:50:04;;;;;;;12.05;6.03;;;7.00;99.90;;;;;;4989233;28;20026;-76
2023/04/25 05:52:30;;;;;;;9.20;5.38;;;6.90;99.90;;;;;;4989726;28;20257;-80
2023/04/25 05:54:56;;;;;;;14.27;6.35;;;6.90;99.90;;;;;;4989531;28;20463;-80
2023/04/25 05:57:25;;;;;;;12.48;5.57;;;7.00;99.90;;;;;;4990238;28;20081;-80
2023/04/25 05:59:51;;;;;;;10.40;5.53;;;7.00;99.90;;;;;;4988054;28;20079;-79
2023/04/25 06:02:17;;;;;;;14.23;5.88;;;7.00;99.90;;;;;;4985495;28;20030;-79
2023/04/25 06:04:43;;;;;;;12.70;5.40;;;7.00;99.90;;;;;;4988286;28;20049;-76
2023/04/25 06:07:09;;;;;;;10.82;5.30;;;7.00;99.90;;;;;;4987291;28;20493;-75
2023/04/25 06:09:35;;;;;;;11.20;5.95;;;6.90;99.90;;;;;;4988075;28;20481;-76
2023/04/25 06:12:01;;;;;;;10.05;5.63;;;7.00;99.90;;;;;;4989132;28;20026;-76
2023/04/25 06:14:27;;;;;;;18.15;6.32;;;7.00;99.90;;;;;;4988459;28;20670;-74
2023/04/25 06:16:53;;;;;;;10.93;5.05;;;7.10;99.90;;;;;;4986179;28;20038;-76
2023/04/25 06:19:18;;;;;;;13.88;5.10;;;7.10;99.90;;;;;;4972253;28;20039;-76
2023/04/25 06:21:44;;;;;;;11.68;5.32;;;7.10;99.90;;;;;;4986537;28;20125;-77
2023/04/25 06:24:10;;;;;;;9.82;4.88;;;7.20;99.90;;;;;;4987912;28;20045;-74
2023/04/25 06:26:35;;;;;;;11.30;5.63;;;7.30;99.90;;;;;;4989768;28;20740;-74
2023/04/25 06:29:01;;;;;;;13.63;4.97;;;7.30;99.90;;;;;;4986844;28;20038;-76
2023/04/25 06:31:28;;;;;;;13.60;6.50;;;7.30;99.90;;;;;;4988734;28;20041;-77
2023/04/25 06:33:54;;;;;;;10.90;5.40;;;7.30;99.90;;;;;;4988735;28;20470;-74
2023/04/25 06:36:24;;;;;;;10.50;5.00;;;7.30;99.90;;;;;;4969452;28;20034;-79
2023/04/25 06:38:52;;;;;;;10.68;4.95;;;7.30;99.90;;;;;;4985474;28;20429;-78
2023/04/25 06:41:17;;;;;;;14.90;5.55;;;7.40;99.90;;;;;;4989224;28;20037;-77
2023/04/25 06:43:43;;;;;;;10.52;5.03;;;7.60;99.90;;;;;;4989099;28;20030;-78
2023/04/25 06:46:09;;;;;;;10.70;5.38;;;7.80;99.90;;;;;;4988185;28;20626;-77
2023/04/25 06:48:34;;;;;;;10.35;5.43;;;8.00;99.90;;;;;;4989404;28;20038;-77
2023/04/25 06:51:00;;;;;;;11.55;5.47;;;7.90;99.90;;;;;;4987990;28;20038;-76
2023/04/25 06:53:26;;;;;;;12.05;6.40;;;8.00;99.90;;;;;;4989554;28;20380;-77
2023/04/25 06:55:51;;;;;;;13.65;6.53;;;8.00;99.90;;;;;;4988668;28;20352;-77
2023/04/25 06:58:17;;;;;;;12.02;6.03;;;8.00;99.90;;;;;;4987424;28;20132;-78
2023/04/25 07:00:43;;;;;;;11.60;6.43;;;7.90;99.90;;;;;;4983622;28;20498;-77
2023/04/25 07:03:09;;;;;;;12.43;6.30;;;7.80;99.90;;;;;;4985263;28;20041;-77
2023/04/25 07:05:35;;;;;;;11.18;6.22;;;7.90;99.90;;;;;;4988696;28;20041;-75
2023/04/25 07:08:00;;;;;;;14.40;7.03;;;8.00;99.90;;;;;;4988082;28;20058;-75
2023/04/25 07:10:26;;;;;;;15.57;7.32;;;8.10;99.90;;;;;;4988136;28;20109;-76
2023/04/25 07:12:52;;;;;;;14.20;6.65;;;8.10;99.90;;;;;;4987644;28;20087;-74
2023/04/25 07:15:18;;;;;;;13.18;7.13;;;8.20;99.90;;;;;;4988132;28;20077;-74
2023/04/25 07:17:43;;;;;;;12.50;6.75;;;8.10;99.90;;;;;;4987500;28;20583;-77
2023/04/25 07:20:09;;;;;;;11.80;7.10;;;8.00;99.90;;;;;;4988143;28;20827;-75
2023/04/25 07:22:35;;;;;;;13.18;6.57;;;8.10;99.90;;;;;;4989110;28;20046;-75
2023/04/25 07:25:01;;;;;;;11.57;6.43;;;8.10;99.90;;;;;;4988031;28;20468;-77
2023/04/25 07:27:27;;;;;;;13.82;6.82;;;8.20;99.90;;;;;;4985777;28;20031;-75
2023/04/25 07:29:53;;;;;;;11.55;6.60;;;8.30;99.90;;;;;;4988069;28;20077;-73
2023/04/25 07:32:19;;;;;;;10.32;6.43;;;8.30;99.90;;;;;;4988340;28;20026;-74
2023/04/25 07:34:45;;;;;;;10.77;6.30;;;8.40;99.90;;;;;;4987548;28;20022;-74
2023/04/25 07:37:10;;;;;;;11.10;6.05;;;8.40;99.90;;;;;;4985378;28;20101;-71
2023/04/25 07:39:37;;;;;;;11.68;6.13;;;8.40;99.90;;;;;;4988453;28;20034;-72
2023/04/25 07:42:03;;;;;;;10.27;5.38;;;8.40;99.90;;;;;;4986340;28;20114;-72
2023/04/25 07:44:30;;;;;;;9.82;6.03;;;8.50;99.90;;;;;;4987873;28;20037;-72
2023/04/25 07:46:56;;;;;;;8.18;4.95;;;8.60;99.90;;;;;;4969466;28;20069;-76
2023/04/25 07:49:21;;;;;;;9.68;5.30;;;8.60;99.90;;;;;;4986949;28;20492;-73
2023/04/25 07:51:47;;;;;;;8.73;5.28;;;8.50;99.90;;;;;;4988891;28;20533;-74
2023/04/25 07:54:15;;;;;;;9.25;5.00;;;8.60;99.90;;;;;;4987020;28;20660;-70
2023/04/25 07:56:41;;;;;;;8.05;4.40;;;8.60;99.90;;;;;;4986830;28;20739;-76
2023/04/25 07:59:06;;;;;;;7.00;4.28;;;8.70;99.90;;;;;;4975292;28;20050;-72
2023/04/25 08:01:34;;;;;;;8.20;4.85;;;8.80;99.90;;;;;;4982134;28;20033;-69
2023/04/25 08:03:59;;;;;;;8.55;5.32;;;8.90;99.90;;;;;;4987238;28;20105;-70
2023/04/25 08:06:25;;;;;;;10.40;5.35;;;9.00;99.90;;;;;;4987042;28;20157;-72
2023/04/25 08:08:51;;;;;;;9.50;5.50;;;9.10;99.90;;;;;;4987748;28;20487;-71
2023/04/25 08:11:16;;;;;;;10.23;5.18;;;9.10;99.90;;;;;;4989142;28;20022;-70
2023/04/25 08:13:42;;;;;;;11.02;6.20;;;9.20;99.90;;;;;;4992242;28;20371;-71
2023/04/25 08:16:08;;;;;;;14.27;5.65;;;9.30;99.90;;;;;;4989475;28;20391;-72
2023/04/25 08:18:33;;;;;;;9.73;4.93;;;9.20;99.90;;;;;;4987647;28;20030;-75
2023/04/25 08:20:59;;;;;;;9.73;5.13;;;9.20;99.90;;;;;;4989900;28;20030;-76
2023/04/25 08:23:25;;;;;;;8.23;4.82;;;9.30;99.90;;;;;;4991648;28;20041;-73
2023/04/25 08:25:50;;;;;;;7.38;4.60;;;9.30;99.90;;;;;;4991035;28;20609;-75
2023/04/25 08:28:16;;;;;;;7.45;4.40;;;9.30;99.90;;;;;;4989756;28;20221;-76
2023/04/25 08:30:42;;;;;;;6.68;4.10;;;9.30;99.90;;;;;;4990328;28;20058;-74
2023/04/25 08:33:07;;;;;;;7.70;3.97;;;9.30;99.90;;;;;;4987039;28;20776;-78
2023/04/25 08:35:33;;;;;;;8.55;4.03;;;9.30;99.90;;;;;;4990616;28;20121;-77
2023/04/25 08:38:00;;;;;;;7.18;3.90;;;9.30;99.90;;;;;;4989666;28;20034;-75
2023/04/25 08:40:29;;;;;;;6.90;3.55;;;9.30;99.90;;;;;;4992040;28;20036;-76
2023/04/25 08:42:57;;;;;;;5.28;3.30;;;9.20;99.90;;;;;;4990559;28;20042;-77
2023/04/25 08:45:22;;;;;;;7.18;3.72;;;9.30;99.90;;;;;;4988632;28;20105;-75
2023/04/25 08:47:51;;;;;;;5.90;3.70;;;9.20;99.90;;;;;;4989619;28;20531;-72
2023/04/25 08:50:19;;;;;;;6.60;3.88;;;9.20;99.90;;;;;;5001324;28;20593;-73
2023/04/25 08:52:49;;;;;;;8.10;4.47;;;9.20;99.90;;;;;;4991218;28;20387;-74
2023/04/25 08:55:15;;;;;;;8.40;4.07;;;9.30;99.90;;;;;;4989727;28;20084;-75
2023/04/25 08:57:44;;;;;;;6.22;3.45;;;9.30;99.90;;;;;;4991309;28;20046;-76
2023/04/25 09:00:12;;;;;;;6.05;3.40;;;9.20;99.90;;;;;;4987603;28;20037;-77
2023/04/25 09:02:39;;;;;;;5.53;3.20;;;9.20;99.90;;;;;;4988920;28;20038;-76
2023/04/25 09:05:06;;;;;;;5.38;3.33;;;9.20;99.90;;;;;;4991739;28;20382;-78
2023/04/25 09:07:32;;;;;;;7.13;3.60;;;9.30;99.90;;;;;;5005771;28;20164;-75
2023/04/25 09:10:03;;;;;;;8.93;3.53;;;9.40;99.90;;;;;;5003650;28;20530;-74
2023/04/25 09:12:29;;;;;;;8.65;3.30;;;9.30;99.90;;;;;;4985495;28;20031;-77
2023/04/25 09:15:04;;;;;;;5.78;3.40;;;9.30;99.90;;;;;;4990875;28;20027;-76
2023/04/25 09:17:30;;;;;;;8.50;4.10;;;9.20;99.90;;;;;;4990623;28;20022;-76
2023/04/25 09:20:04;;;;;;;7.75;4.25;;;9.20;99.90;;;;;;4990944;28;20037;-76
2023/04/25 09:22:30;;;;;;;7.63;4.53;;;9.10;99.90;;;;;;4992384;28;20026;-74
2023/04/25 09:24:56;;;;;;;8.52;4.65;;;9.00;99.90;;;;;;4990012;28;20084;-76
2023/04/25 09:27:26;;;;;;;11.40;5.40;;;9.00;99.90;;;;;;4989430;28;20166;-77
2023/04/25 09:29:59;;;;;;;10.90;5.95;;;9.10;99.90;;;;;;4989544;28;20072;-73
2023/04/25 09:32:25;;;;;;;10.48;5.60;;;9.10;99.90;;;;;;4989637;28;20110;-72
2023/04/25 09:34:51;;;;;;;9.48;5.10;;;9.20;99.90;;;;;;4989703;28;20060;-71
2023/04/25 09:37:28;;;;;;;11.02;5.60;;;9.30;99.90;;;;;;4988310;28;20534;-73
2023/04/25 09:40:05;;;;;;;10.50;5.57;;;9.30;99.90;;;;;;4989997;28;20038;-72
2023/04/25 09:42:31;;;;;;;10.43;5.50;;;9.40;99.90;;;;;;4971231;28;20367;-76
2023/04/25 09:44:58;;;;;;;9.18;5.38;;;9.30;99.90;;;;;;4971232;28;20235;-75
2023/04/25 09:47:26;;;;;;;15.95;8.27;;;9.40;99.90;;;;;;4982009;28;20046;-73
2023/04/25 09:49:53;;;;;;;11.35;6.25;;;9.60;99.90;;;;;;4990317;28;20046;-75
2023/04/25 09:52:20;;;;;;;11.43;7.00;;;9.80;99.90;;;;;;4980151;28;20037;-82
2023/04/25 09:54:47;;;;;;;13.57;6.72;;;9.90;99.90;;;;;;4988936;28;20475;-72
2023/04/25 09:57:18;;;;;;;12.50;6.60;;;10.10;99.90;;;;;;4986696;28;20038;-73
2023/04/25 09:59:49;;;;;;;20.77;13.68;;;10.20;99.90;;;;;;4989250;28;20101;-73
2023/04/25 10:02:16;;;;;;;15.57;7.40;;;10.40;99.90;;;;;;4984602;28;20034;-73
2023/04/25 10:04:46;;;;;;;14.65;7.57;;;10.60;99.90;;;;;;4990233;28;20030;-72
2023/04/25 10:07:12;;;;;;;11.10;6.28;;;10.70;99.90;;;;;;4977586;28;20030;-74
2023/04/25 10:09:40;;;;;;;12.07;6.60;;;10.60;99.90;;;;;;4987624;28;20950;-74
2023/04/25 10:12:07;;;;;;;12.45;6.93;;;10.50;99.90;;;;;;4981644;28;20022;-74
2023/04/25 10:14:33;;;;;;;12.50;6.43;;;10.50;99.90;;;;;;4989534;28;20042;-72
2023/04/25 10:17:00;;;;;;;12.48;6.65;;;10.40;99.90;;;;;;4960671;28;20133;-73
2023/04/25 10:19:29;;;;;;;12.18;6.90;;;10.40;99.90;;;;;;4987507;28;20062;-72
2023/04/25 10:22:09;;;;;;;14.82;6.95;;;10.50;99.90;;;;;;4987227;28;20038;-74
2023/04/25 10:24:36;;;;;;;12.98;7.22;;;10.60;99.90;;;;;;4988617;28;20495;-73
2023/04/25 10:27:02;;;;;;;15.00;7.35;;;10.60;99.90;;;;;;4978061;28;20061;-73
2023/04/25 10:29:28;;;;;;;15.55;7.07;;;10.60;99.90;;;;;;4985251;28;20053;-72
2023/04/25 10:31:54;;;;;;;14.98;6.57;;;10.50;99.90;;;;;;4985480;28;20031;-74
2023/04/25 10:34:25;;;;;;;16.20;7.50;;;10.40;99.90;;;;;;4988937;28;20889;-73
2023/04/25 10:36:53;;;;;;;19.20;9.90;;;10.30;99.90;;;;;;4989242;28;20038;-76
2023/04/25 10:39:24;;;;;;;13.10;6.82;;;10.10;99.90;;;;;;4988792;28;20395;-73
2023/04/25 10:42:02;;;;;;;12.02;6.80;;;9.90;99.90;;;;;;4988721;28;20030;-72
2023/04/25 10:44:31;;;;;;;14.07;6.45;;;9.60;99.90;;;;;;4988267;28;20027;-75
2023/04/25 10:46:58;;;;;;;12.90;6.90;;;9.50;99.90;;;;;;4989395;28;20058;-77
2023/04/25 10:49:41;;;;;;;13.18;6.70;;;9.40;99.90;;;;;;5001829;28;20111;-71
2023/04/25 10:52:13;;;;;;;11.77;6.28;;;9.30;99.90;;;;;;4986646;28;20117;-71
2023/04/25 10:54:58;;;;;;;15.82;8.27;;;9.40;99.90;;;;;;4989455;28;20032;-71
2023/04/25 10:57:36;;;;;;;12.93;7.38;;;9.40;99.90;;;;;;4982647;28;20109;-72
2023/04/25 11:00:22;;;;;;;14.00;7.40;;;9.50;99.90;;;;;;4987746;28;20030;-72
2023/04/25 11:02:58;;;;;;;14.02;7.70;;;9.60;99.90;;;;;;4979137;28;20038;-72
2023/04/25 11:05:24;;;;;;;13.77;7.15;;;9.70;99.90;;;;;;4988568;28;20270;-72
2023/04/25 11:07:54;;;;;;;15.43;7.50;;;9.60;99.90;;;;;;4988876;28;20141;-71
2023/04/25 11:10:20;;;;;;;14.80;7.40;;;9.70;99.90;;;;;;4988347;28;20089;-71
2023/04/25 11:12:47;;;;;;;14.80;8.10;;;9.80;99.90;;;;;;4987795;28;20038;-71
2023/04/25 11:15:13;;;;;;;14.82;7.75;;;9.70;99.90;;;;;;4987412;28;20027;-72
2023/04/25 11:17:40;;;;;;;15.63;8.10;;;9.80;99.90;;;;;;4988768;28;20097;-71
2023/04/25 11:20:11;;;;;;;14.35;7.57;;;9.90;99.90;;;;;;4988658;28;20362;-71
2023/04/25 11:22:37;;;;;;;;;;;9.70;99.90;;;;;;4988461;28;20039;-71
2023/04/25 11:25:10;;;;;;;14.82;7.68;;;9.60;99.90;;;;;;4989517;28;19960;-75
2023/04/25 11:27:56;;;;;;;10.65;5.55;;;9.50;99.90;;;;;;4986891;28;20104;-76
2023/04/25 11:30:23;;;;;;;11.98;6.22;;;8.80;99.90;;;;;;4987226;28;20027;-71
2023/04/25 11:32:49;;;;;;;10.43;5.55;;;8.40;99.90;;;;;;4988287;28;20026;-73
2023/04/25 11:35:16;;;;;;;12.10;6.20;;;8.20;99.90;;;;;;4987335;28;20053;-73
2023/04/25 11:37:43;;;;;;;9.88;5.20;;;8.10;99.90;;;;;;4988674;28;20046;-76
2023/04/25 11:40:09;;;;;;;12.13;5.75;;;8.00;99.90;;;;;;4983786;28;20034;-77
2023/04/25 11:42:39;;;;;;;14.23;5.47;;;7.90;99.90;;;;;;4989213;28;20050;-74
2023/04/25 11:45:06;;;;;;;6.87;3.63;;;7.60;99.90;;;;;;4992483;28;20382;-74
2023/04/25 11:47:33;;;;;;;12.63;5.25;;;7.30;99.90;;;;;;4992342;28;20262;-73
2023/04/25 11:49:59;;;;;;;15.82;5.85;;;7.00;99.90;;;;;;4992482;28;20131;-74
2023/04/25 11:52:39;;;;;;;12.63;5.78;;;6.90;99.90;;;;;;4992046;28;20030;-72
2023/04/25 11:55:19;;;;;;;12.00;5.50;;;6.90;99.90;;;;;;4990708;28;20371;-71
2023/04/25 11:57:47;;;;;;;12.60;5.82;;;6.80;99.90;;;;;;4991867;28;20037;-72
2023/04/25 12:00:20;;;;;;;12.88;6.22;;;6.80;99.90;;;;;;4991269;28;20113;-72
2023/04/25 12:02:50;;;;;;;11.93;6.22;;;6.80;99.90;;;;;;4990367;28;20412;-73
2023/04/25 12:05:16;;;;;;;15.43;6.72;;;6.70;99.90;;;;;;4985319;28;20078;-74
2023/04/25 12:07:42;;;;;;;15.98;6.80;;;6.50;99.90;;;;;;4974234;28;20077;-72
2023/04/25 12:10:13;;;;;;;14.90;7.30;;;6.40;99.90;;;;;;4989860;28;20056;-73
2023/04/25 12:12:44;;;;;;;15.45;6.32;;;6.20;99.90;;;;;;4988722;28;20719;-73
2023/04/25 12:15:19;;;;;;;17.77;6.82;;;6.10;99.90;;;;;;4990801;28;20030;-74
2023/04/25 12:17:51;;;;;;;16.02;6.38;;;6.20;99.90;;;;;;4992168;28;20062;-75
2023/04/25 12:20:23;;;;;;;14.32;5.90;;;6.20;99.90;;;;;;4990829;28;20030;-73
2023/04/25 12:22:50;;;;;;;13.45;6.20;;;6.20;99.90;;;;;;4990075;28;20034;-76
2023/04/25 12:25:38;;;;;;;15.68;6.75;;;6.30;99.90;;;;;;4989668;28;20039;-74
2023/04/25 12:28:26;;;;;;;14.95;6.50;;;6.40;99.90;;;;;;4991301;28;20061;-72
2023/04/25 12:30:56;;;;;;;15.63;5.88;;;6.60;99.90;;;;;;4990311;28;20154;-72
2023/04/25 12:33:22;;;;;;;9.80;5.50;;;6.60;99.90;;;;;;4990431;28;20084;-74
2023/04/25 12:35:48;;;;;;;12.15;5.28;;;6.70;99.90;;;;;;4991830;28;20117;-74
2023/04/25 12:38:31;;;;;;;14.18;6.65;;;6.60;99.90;;;;;;4991112;28;20113;-76
2023/04/25 12:41:00;;;;;;;15.10;6.78;;;6.50;99.90;;;;;;4989727;28;20030;-75
2023/04/25 12:43:26;;;;;;;16.08;6.85;;;6.50;99.90;;;;;;4988740;28;20037;-71
2023/04/25 12:45:53;;;;;;;15.63;7.00;;;6.50;99.90;;;;;;4989869;28;20034;-73
2023/04/25 12:48:19;;;;;;;14.00;6.50;;;6.50;99.90;;;;;;4988555;28;20365;-74
2023/04/25 12:50:48;;;;;;;13.55;6.65;;;6.40;99.90;;;;;;4990766;28;20359;-73